sensor_id;sensor_type;location;lat;lon;timestamp;P1;durP1;ratioP1;P2;durP2;ratioP2
63312;SDS011;49442;45.640;13.812;2023-04-07T00:00:55;19.02;;;10.07;;
63312;SDS011;49442;45.640;13.812;2023-04-07T00:03:21;16.35;;;10.35;;
63312;SDS011;49442;45.640;13.812;2023-04-07T00:05:47;18.48;;;10.13;;
63312;SDS011;49442;45.640;13.812;2023-04-07T00:08:13;23.45;;;10.65;;
63312;SDS011;49442;45.640;13.812;2023-04-07T00:10:38;23.80;;;11.15;;
63312;SDS011;49442;45.640;13.812;2023-04-07T00:13:04;20.83;;;11.02;;
63312;SDS011;49442;45.640;13.812;2023-04-07T00:15:30;22.00;;;10.57;;
63312;SDS011;49442;45.640;13.812;2023-04-07T00:17:56;20.40;;;10.93;;
63312;SDS011;49442;45.640;13.812;2023-04-07T00:20:21;17.77;;;9.98;;
63312;SDS011;49442;45.640;13.812;2023-04-07T00:22:47;17.10;;;9.80;;
63312;SDS011;49442;45.640;13.812;2023-04-07T00:25:13;22.45;;;10.43;;
63312;SDS011;49442;45.640;13.812;2023-04-07T00:27:39;19.25;;;9.93;;
63312;SDS011;49442;45.640;13.812;2023-04-07T00:30:05;20.08;;;9.40;;
63312;SDS011;49442;45.640;13.812;2023-04-07T00:32:31;24.77;;;10.73;;
63312;SDS011;49442;45.640;13.812;2023-04-07T00:34:57;22.70;;;10.95;;
63312;SDS011;49442;45.640;13.812;2023-04-07T00:37:23;16.25;;;9.82;;
63312;SDS011;49442;45.640;13.812;2023-04-07T00:39:49;18.90;;;10.38;;
63312;SDS011;49442;45.640;13.812;2023-04-07T00:42:16;21.90;;;10.30;;
63312;SDS011;49442;45.640;13.812;2023-04-07T00:44:42;20.05;;;10.57;;
63312;SDS011;49442;45.640;13.812;2023-04-07T00:47:08;19.95;;;11.27;;
63312;SDS011;49442;45.640;13.812;2023-04-07T00:49:35;18.63;;;10.27;;
63312;SDS011;49442;45.640;13.812;2023-04-07T00:52:01;16.58;;;10.32;;
63312;SDS011;49442;45.640;13.812;2023-04-07T00:54:29;20.48;;;10.35;;
63312;SDS011;49442;45.640;13.812;2023-04-07T00:56:55;24.73;;;10.50;;
63312;SDS011;49442;45.640;13.812;2023-04-07T00:59:21;19.05;;;11.50;;
63312;SDS011;49442;45.640;13.812;2023-04-07T01:01:49;25.27;;;11.02;;
63312;SDS011;49442;45.640;13.812;2023-04-07T01:07:15;24.77;;;11.30;;
63312;SDS011;49442;45.640;13.812;2023-04-07T01:09:52;22.90;;;10.48;;
63312;SDS011;49442;45.640;13.812;2023-04-07T01:12:32;18.55;;;10.40;;
63312;SDS011;49442;45.640;13.812;2023-04-07T01:14:59;21.00;;;11.43;;
63312;SDS011;49442;45.640;13.812;2023-04-07T01:17:31;24.90;;;10.88;;
63312;SDS011;49442;45.640;13.812;2023-04-07T01:20:03;23.70;;;11.52;;
63312;SDS011;49442;45.640;13.812;2023-04-07T01:22:33;16.88;;;10.80;;
63312;SDS011;49442;45.640;13.812;2023-04-07T01:28:07;24.73;;;10.60;;
63312;SDS011;49442;45.640;13.812;2023-04-07T01:30:55;17.25;;;10.00;;
63312;SDS011;49442;45.640;13.812;2023-04-07T01:33:22;18.70;;;10.45;;
63312;SDS011;49442;45.640;13.812;2023-04-07T01:35:49;18.10;;;10.57;;
63312;SDS011;49442;45.640;13.812;2023-04-07T01:38:16;23.38;;;10.85;;
63312;SDS011;49442;45.640;13.812;2023-04-07T01:40:42;19.67;;;10.52;;
63312;SDS011;49442;45.640;13.812;2023-04-07T01:43:11;21.67;;;11.18;;
63312;SDS011;49442;45.640;13.812;2023-04-07T01:45:38;19.40;;;10.90;;
63312;SDS011;49442;45.640;13.812;2023-04-07T01:48:05;19.50;;;11.18;;
63312;SDS011;49442;45.640;13.812;2023-04-07T01:50:32;16.17;;;10.77;;
63312;SDS011;49442;45.640;13.812;2023-04-07T01:52:58;18.65;;;11.80;;
63312;SDS011;49442;45.640;13.812;2023-04-07T01:55:24;17.20;;;9.98;;
63312;SDS011;49442;45.640;13.812;2023-04-07T01:57:52;22.65;;;11.15;;
63312;SDS011;49442;45.640;13.812;2023-04-07T02:00:18;24.15;;;11.23;;
63312;SDS011;49442;45.640;13.812;2023-04-07T02:02:44;18.85;;;10.98;;
63312;SDS011;49442;45.640;13.812;2023-04-07T02:05:12;16.98;;;10.60;;
63312;SDS011;49442;45.640;13.812;2023-04-07T02:08:03;23.13;;;11.13;;
63312;SDS011;49442;45.640;13.812;2023-04-07T02:10:28;20.40;;;11.57;;
63312;SDS011;49442;45.640;13.812;2023-04-07T02:12:55;21.83;;;11.38;;
63312;SDS011;49442;45.640;13.812;2023-04-07T02:15:22;23.77;;;11.32;;
63312;SDS011;49442;45.640;13.812;2023-04-07T02:17:51;28.17;;;11.23;;
63312;SDS011;49442;45.640;13.812;2023-04-07T02:20:19;20.88;;;11.25;;
63312;SDS011;49442;45.640;13.812;2023-04-07T02:22:45;26.15;;;12.00;;
63312;SDS011;49442;45.640;13.812;2023-04-07T02:25:24;18.65;;;11.65;;
63312;SDS011;49442;45.640;13.812;2023-04-07T02:27:52;20.15;;;11.82;;
63312;SDS011;49442;45.640;13.812;2023-04-07T02:30:19;21.48;;;11.52;;
63312;SDS011;49442;45.640;13.812;2023-04-07T02:32:45;30.73;;;11.77;;
63312;SDS011;49442;45.640;13.812;2023-04-07T02:35:11;26.88;;;12.13;;
63312;SDS011;49442;45.640;13.812;2023-04-07T02:37:37;22.38;;;12.30;;
63312;SDS011;49442;45.640;13.812;2023-04-07T02:40:04;20.55;;;12.00;;
63312;SDS011;49442;45.640;13.812;2023-04-07T02:42:30;25.13;;;12.48;;
63312;SDS011;49442;45.640;13.812;2023-04-07T02:44:56;22.65;;;12.27;;
63312;SDS011;49442;45.640;13.812;2023-04-07T02:47:22;21.17;;;12.82;;
63312;SDS011;49442;45.640;13.812;2023-04-07T02:49:48;22.65;;;12.95;;
63312;SDS011;49442;45.640;13.812;2023-04-07T02:52:14;20.65;;;12.05;;
63312;SDS011;49442;45.640;13.812;2023-04-07T02:54:39;21.92;;;12.45;;
63312;SDS011;49442;45.640;13.812;2023-04-07T02:57:05;24.45;;;12.60;;
63312;SDS011;49442;45.640;13.812;2023-04-07T02:59:31;24.08;;;11.68;;
63312;SDS011;49442;45.640;13.812;2023-04-07T03:01:57;22.38;;;11.73;;
63312;SDS011;49442;45.640;13.812;2023-04-07T03:04:22;25.02;;;12.00;;
63312;SDS011;49442;45.640;13.812;2023-04-07T03:06:49;18.92;;;12.40;;
63312;SDS011;49442;45.640;13.812;2023-04-07T03:09:14;21.95;;;11.75;;
63312;SDS011;49442;45.640;13.812;2023-04-07T03:11:40;26.65;;;14.05;;
63312;SDS011;49442;45.640;13.812;2023-04-07T03:14:06;30.33;;;13.23;;
63312;SDS011;49442;45.640;13.812;2023-04-07T03:16:32;24.42;;;12.45;;
63312;SDS011;49442;45.640;13.812;2023-04-07T03:18:58;21.20;;;12.07;;
63312;SDS011;49442;45.640;13.812;2023-04-07T03:21:23;26.27;;;12.85;;
63312;SDS011;49442;45.640;13.812;2023-04-07T03:23:49;25.30;;;12.50;;
63312;SDS011;49442;45.640;13.812;2023-04-07T03:26:15;21.20;;;11.70;;
63312;SDS011;49442;45.640;13.812;2023-04-07T03:28:41;23.83;;;13.25;;
63312;SDS011;49442;45.640;13.812;2023-04-07T03:31:06;18.67;;;11.43;;
63312;SDS011;49442;45.640;13.812;2023-04-07T03:33:32;21.48;;;12.25;;
63312;SDS011;49442;45.640;13.812;2023-04-07T03:35:59;22.60;;;12.73;;
63312;SDS011;49442;45.640;13.812;2023-04-07T03:38:25;26.30;;;13.05;;
63312;SDS011;49442;45.640;13.812;2023-04-07T03:40:51;26.15;;;12.45;;
63312;SDS011;49442;45.640;13.812;2023-04-07T03:43:16;28.42;;;13.35;;
63312;SDS011;49442;45.640;13.812;2023-04-07T03:45:42;20.02;;;12.85;;
63312;SDS011;49442;45.640;13.812;2023-04-07T03:48:08;21.85;;;11.43;;
63312;SDS011;49442;45.640;13.812;2023-04-07T03:50:37;20.27;;;12.50;;
63312;SDS011;49442;45.640;13.812;2023-04-07T03:53:03;28.30;;;14.15;;
63312;SDS011;49442;45.640;13.812;2023-04-07T03:55:29;31.38;;;12.63;;
63312;SDS011;49442;45.640;13.812;2023-04-07T03:57:56;26.42;;;13.82;;
63312;SDS011;49442;45.640;13.812;2023-04-07T04:00:22;22.48;;;12.85;;
63312;SDS011;49442;45.640;13.812;2023-04-07T04:02:48;25.23;;;13.05;;
63312;SDS011;49442;45.640;13.812;2023-04-07T04:05:13;23.60;;;12.63;;
63312;SDS011;49442;45.640;13.812;2023-04-07T04:07:39;24.05;;;13.50;;
63312;SDS011;49442;45.640;13.812;2023-04-07T04:10:05;19.63;;;12.18;;
63312;SDS011;49442;45.640;13.812;2023-04-07T04:12:31;24.55;;;13.18;;
63312;SDS011;49442;45.640;13.812;2023-04-07T04:14:57;22.20;;;12.57;;
63312;SDS011;49442;45.640;13.812;2023-04-07T04:17:23;22.90;;;12.95;;
63312;SDS011;49442;45.640;13.812;2023-04-07T04:19:49;28.08;;;13.10;;
63312;SDS011;49442;45.640;13.812;2023-04-07T04:22:15;29.48;;;13.98;;
63312;SDS011;49442;45.640;13.812;2023-04-07T04:24:41;27.60;;;13.68;;
63312;SDS011;49442;45.640;13.812;2023-04-07T04:27:07;24.50;;;14.10;;
63312;SDS011;49442;45.640;13.812;2023-04-07T04:29:33;26.55;;;13.13;;
63312;SDS011;49442;45.640;13.812;2023-04-07T04:31:59;26.70;;;14.57;;
63312;SDS011;49442;45.640;13.812;2023-04-07T04:34:25;27.52;;;13.75;;
63312;SDS011;49442;45.640;13.812;2023-04-07T04:36:51;27.38;;;13.35;;
63312;SDS011;49442;45.640;13.812;2023-04-07T04:39:17;25.70;;;12.23;;
63312;SDS011;49442;45.640;13.812;2023-04-07T04:41:43;27.70;;;14.32;;
63312;SDS011;49442;45.640;13.812;2023-04-07T04:44:09;25.65;;;14.70;;
63312;SDS011;49442;45.640;13.812;2023-04-07T04:46:36;21.23;;;13.23;;
63312;SDS011;49442;45.640;13.812;2023-04-07T04:49:02;26.98;;;13.85;;
63312;SDS011;49442;45.640;13.812;2023-04-07T04:51:27;24.02;;;13.52;;
63312;SDS011;49442;45.640;13.812;2023-04-07T04:53:53;38.10;;;14.80;;
63312;SDS011;49442;45.640;13.812;2023-04-07T04:56:19;53.63;;;17.55;;
63312;SDS011;49442;45.640;13.812;2023-04-07T04:58:45;23.98;;;14.50;;
63312;SDS011;49442;45.640;13.812;2023-04-07T05:01:11;24.98;;;15.63;;
63312;SDS011;49442;45.640;13.812;2023-04-07T05:03:37;27.27;;;14.45;;
63312;SDS011;49442;45.640;13.812;2023-04-07T05:06:03;37.80;;;14.93;;
63312;SDS011;49442;45.640;13.812;2023-04-07T05:08:29;54.97;;;15.23;;
63312;SDS011;49442;45.640;13.812;2023-04-07T05:10:55;47.22;;;15.73;;
63312;SDS011;49442;45.640;13.812;2023-04-07T05:13:21;31.08;;;15.35;;
63312;SDS011;49442;45.640;13.812;2023-04-07T05:15:47;34.42;;;15.48;;
63312;SDS011;49442;45.640;13.812;2023-04-07T05:18:13;28.85;;;13.75;;
63312;SDS011;49442;45.640;13.812;2023-04-07T05:20:39;23.08;;;13.38;;
63312;SDS011;49442;45.640;13.812;2023-04-07T05:23:05;23.60;;;12.43;;
63312;SDS011;49442;45.640;13.812;2023-04-07T05:25:31;23.15;;;13.30;;
63312;SDS011;49442;45.640;13.812;2023-04-07T05:27:57;36.05;;;14.88;;
63312;SDS011;49442;45.640;13.812;2023-04-07T05:30:24;33.45;;;13.10;;
63312;SDS011;49442;45.640;13.812;2023-04-07T05:32:51;33.35;;;15.05;;
63312;SDS011;49442;45.640;13.812;2023-04-07T05:35:18;33.88;;;14.60;;
63312;SDS011;49442;45.640;13.812;2023-04-07T05:37:43;29.63;;;13.48;;
63312;SDS011;49442;45.640;13.812;2023-04-07T05:40:10;42.17;;;15.07;;
63312;SDS011;49442;45.640;13.812;2023-04-07T05:42:36;30.35;;;13.43;;
63312;SDS011;49442;45.640;13.812;2023-04-07T05:45:05;25.27;;;13.52;;
63312;SDS011;49442;45.640;13.812;2023-04-07T05:47:32;21.85;;;12.50;;
63312;SDS011;49442;45.640;13.812;2023-04-07T05:49:58;44.10;;;14.02;;
63312;SDS011;49442;45.640;13.812;2023-04-07T05:52:25;32.80;;;13.23;;
63312;SDS011;49442;45.640;13.812;2023-04-07T05:54:54;23.40;;;13.20;;
63312;SDS011;49442;45.640;13.812;2023-04-07T05:57:20;33.63;;;12.27;;
63312;SDS011;49442;45.640;13.812;2023-04-07T05:59:46;31.65;;;12.85;;
63312;SDS011;49442;45.640;13.812;2023-04-07T06:02:12;24.67;;;11.93;;
63312;SDS011;49442;45.640;13.812;2023-04-07T06:04:39;24.85;;;12.52;;
63312;SDS011;49442;45.640;13.812;2023-04-07T06:07:05;29.27;;;12.30;;
63312;SDS011;49442;45.640;13.812;2023-04-07T06:09:31;21.98;;;12.55;;
63312;SDS011;49442;45.640;13.812;2023-04-07T06:11:56;42.47;;;13.75;;
63312;SDS011;49442;45.640;13.812;2023-04-07T06:14:22;30.40;;;11.68;;
63312;SDS011;49442;45.640;13.812;2023-04-07T06:16:48;32.97;;;12.20;;
63312;SDS011;49442;45.640;13.812;2023-04-07T06:19:14;22.83;;;12.60;;
63312;SDS011;49442;45.640;13.812;2023-04-07T06:21:40;29.02;;;12.30;;
63312;SDS011;49442;45.640;13.812;2023-04-07T06:24:05;28.17;;;13.50;;
63312;SDS011;49442;45.640;13.812;2023-04-07T06:26:31;24.27;;;11.13;;
63312;SDS011;49442;45.640;13.812;2023-04-07T06:28:57;19.55;;;11.80;;
63312;SDS011;49442;45.640;13.812;2023-04-07T06:31:23;26.02;;;12.25;;
63312;SDS011;49442;45.640;13.812;2023-04-07T06:33:50;23.52;;;12.85;;
63312;SDS011;49442;45.640;13.812;2023-04-07T06:36:16;21.05;;;12.40;;
63312;SDS011;49442;45.640;13.812;2023-04-07T06:38:42;20.75;;;11.82;;
63312;SDS011;49442;45.640;13.812;2023-04-07T06:41:07;20.55;;;11.60;;
63312;SDS011;49442;45.640;13.812;2023-04-07T06:43:37;24.25;;;11.57;;
63312;SDS011;49442;45.640;13.812;2023-04-07T06:46:02;23.67;;;10.90;;
63312;SDS011;49442;45.640;13.812;2023-04-07T06:48:28;18.83;;;9.45;;
63312;SDS011;49442;45.640;13.812;2023-04-07T06:50:54;17.95;;;10.50;;
63312;SDS011;49442;45.640;13.812;2023-04-07T06:53:20;21.55;;;10.60;;
63312;SDS011;49442;45.640;13.812;2023-04-07T06:55:45;23.50;;;11.68;;
63312;SDS011;49442;45.640;13.812;2023-04-07T06:58:11;23.05;;;11.68;;
63312;SDS011;49442;45.640;13.812;2023-04-07T07:00:37;18.05;;;10.23;;
63312;SDS011;49442;45.640;13.812;2023-04-07T07:03:03;19.65;;;10.40;;
63312;SDS011;49442;45.640;13.812;2023-04-07T07:05:29;24.00;;;11.27;;
63312;SDS011;49442;45.640;13.812;2023-04-07T07:07:55;21.65;;;11.40;;
63312;SDS011;49442;45.640;13.812;2023-04-07T07:10:21;22.25;;;11.73;;
63312;SDS011;49442;45.640;13.812;2023-04-07T07:12:47;24.55;;;10.32;;
63312;SDS011;49442;45.640;13.812;2023-04-07T07:15:13;23.33;;;10.15;;
63312;SDS011;49442;45.640;13.812;2023-04-07T07:17:39;23.65;;;10.57;;
63312;SDS011;49442;45.640;13.812;2023-04-07T07:20:05;17.02;;;9.63;;
63312;SDS011;49442;45.640;13.812;2023-04-07T07:22:31;23.17;;;10.50;;
63312;SDS011;49442;45.640;13.812;2023-04-07T07:24:57;18.23;;;10.93;;
63312;SDS011;49442;45.640;13.812;2023-04-07T07:27:23;22.85;;;11.23;;
63312;SDS011;49442;45.640;13.812;2023-04-07T07:29:48;20.00;;;10.50;;
63312;SDS011;49442;45.640;13.812;2023-04-07T07:32:14;20.33;;;11.43;;
63312;SDS011;49442;45.640;13.812;2023-04-07T07:34:40;26.55;;;11.38;;
63312;SDS011;49442;45.640;13.812;2023-04-07T07:37:06;19.80;;;11.02;;
63312;SDS011;49442;45.640;13.812;2023-04-07T07:39:32;22.10;;;11.68;;
63312;SDS011;49442;45.640;13.812;2023-04-07T07:41:57;20.90;;;10.45;;
63312;SDS011;49442;45.640;13.812;2023-04-07T07:44:23;25.65;;;12.27;;
63312;SDS011;49442;45.640;13.812;2023-04-07T07:46:49;26.08;;;11.52;;
63312;SDS011;49442;45.640;13.812;2023-04-07T07:49:15;23.38;;;10.65;;
63312;SDS011;49442;45.640;13.812;2023-04-07T07:51:40;18.52;;;11.05;;
63312;SDS011;49442;45.640;13.812;2023-04-07T07:54:06;33.15;;;11.48;;
63312;SDS011;49442;45.640;13.812;2023-04-07T07:56:33;18.55;;;10.20;;
63312;SDS011;49442;45.640;13.812;2023-04-07T07:58:59;23.17;;;12.48;;
63312;SDS011;49442;45.640;13.812;2023-04-07T08:01:25;19.55;;;10.93;;
63312;SDS011;49442;45.640;13.812;2023-04-07T08:03:50;24.60;;;12.55;;
63312;SDS011;49442;45.640;13.812;2023-04-07T08:06:16;37.10;;;16.38;;
63312;SDS011;49442;45.640;13.812;2023-04-07T08:08:42;28.52;;;12.43;;
63312;SDS011;49442;45.640;13.812;2023-04-07T08:11:08;24.45;;;12.68;;
63312;SDS011;49442;45.640;13.812;2023-04-07T08:13:34;25.88;;;13.82;;
63312;SDS011;49442;45.640;13.812;2023-04-07T08:15:59;24.90;;;14.13;;
63312;SDS011;49442;45.640;13.812;2023-04-07T08:18:25;28.55;;;14.18;;
63312;SDS011;49442;45.640;13.812;2023-04-07T08:20:51;23.25;;;12.73;;
63312;SDS011;49442;45.640;13.812;2023-04-07T08:23:17;22.00;;;12.90;;
63312;SDS011;49442;45.640;13.812;2023-04-07T08:25:43;22.35;;;11.90;;
63312;SDS011;49442;45.640;13.812;2023-04-07T08:28:09;22.23;;;11.82;;
63312;SDS011;49442;45.640;13.812;2023-04-07T08:30:35;22.63;;;13.10;;
63312;SDS011;49442;45.640;13.812;2023-04-07T08:33:02;27.38;;;15.23;;
63312;SDS011;49442;45.640;13.812;2023-04-07T08:35:29;26.70;;;13.50;;
63312;SDS011;49442;45.640;13.812;2023-04-07T08:37:55;28.45;;;13.77;;
63312;SDS011;49442;45.640;13.812;2023-04-07T08:40:21;26.42;;;14.20;;
63312;SDS011;49442;45.640;13.812;2023-04-07T08:42:46;25.17;;;15.40;;
63312;SDS011;49442;45.640;13.812;2023-04-07T08:45:16;29.13;;;14.70;;
63312;SDS011;49442;45.640;13.812;2023-04-07T08:47:43;25.00;;;13.55;;
63312;SDS011;49442;45.640;13.812;2023-04-07T08:50:12;24.83;;;15.05;;
63312;SDS011;49442;45.640;13.812;2023-04-07T08:52:43;27.08;;;13.88;;
63312;SDS011;49442;45.640;13.812;2023-04-07T08:55:10;25.83;;;14.25;;
63312;SDS011;49442;45.640;13.812;2023-04-07T08:57:37;27.30;;;16.27;;
63312;SDS011;49442;45.640;13.812;2023-04-07T09:00:03;26.60;;;16.48;;
63312;SDS011;49442;45.640;13.812;2023-04-07T09:02:33;30.42;;;16.63;;
63312;SDS011;49442;45.640;13.812;2023-04-07T09:05:04;25.10;;;16.23;;
63312;SDS011;49442;45.640;13.812;2023-04-07T09:07:31;26.45;;;16.15;;
63312;SDS011;49442;45.640;13.812;2023-04-07T09:09:58;29.20;;;16.88;;
63312;SDS011;49442;45.640;13.812;2023-04-07T09:12:26;26.30;;;16.35;;
63312;SDS011;49442;45.640;13.812;2023-04-07T09:14:53;23.63;;;16.70;;
63312;SDS011;49442;45.640;13.812;2023-04-07T09:17:19;31.58;;;18.23;;
63312;SDS011;49442;45.640;13.812;2023-04-07T09:19:45;32.80;;;16.50;;
63312;SDS011;49442;45.640;13.812;2023-04-07T09:22:12;26.35;;;16.88;;
63312;SDS011;49442;45.640;13.812;2023-04-07T09:24:39;28.17;;;16.75;;
63312;SDS011;49442;45.640;13.812;2023-04-07T09:27:09;25.88;;;15.57;;
63312;SDS011;49442;45.640;13.812;2023-04-07T09:29:40;23.85;;;16.73;;
63312;SDS011;49442;45.640;13.812;2023-04-07T09:32:07;32.63;;;17.75;;
63312;SDS011;49442;45.640;13.812;2023-04-07T09:34:35;30.48;;;18.15;;
63312;SDS011;49442;45.640;13.812;2023-04-07T09:37:02;25.20;;;17.58;;
63312;SDS011;49442;45.640;13.812;2023-04-07T09:39:29;28.88;;;17.48;;
63312;SDS011;49442;45.640;13.812;2023-04-07T09:41:55;26.00;;;17.10;;
63312;SDS011;49442;45.640;13.812;2023-04-07T09:44:22;30.52;;;18.77;;
63312;SDS011;49442;45.640;13.812;2023-04-07T09:46:56;27.88;;;18.30;;
63312;SDS011;49442;45.640;13.812;2023-04-07T09:49:23;28.52;;;18.35;;
63312;SDS011;49442;45.640;13.812;2023-04-07T09:52:00;27.27;;;18.45;;
63312;SDS011;49442;45.640;13.812;2023-04-07T09:54:32;27.50;;;18.73;;
63312;SDS011;49442;45.640;13.812;2023-04-07T09:57:05;27.50;;;18.40;;
63312;SDS011;49442;45.640;13.812;2023-04-07T09:59:36;30.30;;;19.30;;
63312;SDS011;49442;45.640;13.812;2023-04-07T10:02:03;28.83;;;18.17;;
63312;SDS011;49442;45.640;13.812;2023-04-07T10:04:30;29.85;;;19.20;;
63312;SDS011;49442;45.640;13.812;2023-04-07T10:06:56;33.78;;;19.13;;
63312;SDS011;49442;45.640;13.812;2023-04-07T10:09:24;31.98;;;20.23;;
63312;SDS011;49442;45.640;13.812;2023-04-07T10:11:54;31.92;;;20.40;;
63312;SDS011;49442;45.640;13.812;2023-04-07T10:14:21;29.27;;;20.38;;
63312;SDS011;49442;45.640;13.812;2023-04-07T10:16:55;31.25;;;19.90;;
63312;SDS011;49442;45.640;13.812;2023-04-07T10:19:21;36.13;;;19.40;;
63312;SDS011;49442;45.640;13.812;2023-04-07T10:21:48;32.65;;;20.27;;
63312;SDS011;49442;45.640;13.812;2023-04-07T10:29:36;31.63;;;18.65;;
63312;SDS011;49442;45.640;13.812;2023-04-07T10:32:07;34.33;;;19.02;;
63312;SDS011;49442;45.640;13.812;2023-04-07T10:37:14;30.33;;;18.23;;
63312;SDS011;49442;45.640;13.812;2023-04-07T10:45:16;30.48;;;18.77;;
63312;SDS011;49442;45.640;13.812;2023-04-07T10:48:16;29.08;;;19.25;;
63312;SDS011;49442;45.640;13.812;2023-04-07T10:50:43;32.67;;;20.02;;
63312;SDS011;49442;45.640;13.812;2023-04-07T10:53:11;34.28;;;18.73;;
63312;SDS011;49442;45.640;13.812;2023-04-07T10:55:44;31.40;;;18.55;;
63312;SDS011;49442;45.640;13.812;2023-04-07T11:00:39;32.33;;;19.42;;
63312;SDS011;49442;45.640;13.812;2023-04-07T11:03:09;34.03;;;18.98;;
63312;SDS011;49442;45.640;13.812;2023-04-07T11:05:37;29.45;;;19.00;;
63312;SDS011;49442;45.640;13.812;2023-04-07T11:08:06;27.92;;;18.77;;
63312;SDS011;49442;45.640;13.812;2023-04-07T11:10:32;25.15;;;18.75;;
63312;SDS011;49442;45.640;13.812;2023-04-07T11:13:06;30.27;;;20.10;;
63312;SDS011;49442;45.640;13.812;2023-04-07T11:15:35;33.40;;;21.98;;
63312;SDS011;49442;45.640;13.812;2023-04-07T11:18:15;42.35;;;19.60;;
63312;SDS011;49442;45.640;13.812;2023-04-07T11:20:46;33.80;;;19.63;;
63312;SDS011;49442;45.640;13.812;2023-04-07T11:23:17;26.48;;;18.90;;
63312;SDS011;49442;45.640;13.812;2023-04-07T11:25:47;31.00;;;19.13;;
63312;SDS011;49442;45.640;13.812;2023-04-07T11:28:14;29.50;;;18.42;;
63312;SDS011;49442;45.640;13.812;2023-04-07T11:30:45;34.75;;;19.25;;
63312;SDS011;49442;45.640;13.812;2023-04-07T11:33:19;29.52;;;20.02;;
63312;SDS011;49442;45.640;13.812;2023-04-07T11:35:56;32.65;;;20.05;;
63312;SDS011;49442;45.640;13.812;2023-04-07T11:38:25;35.45;;;20.40;;
63312;SDS011;49442;45.640;13.812;2023-04-07T11:40:52;29.48;;;20.45;;
63312;SDS011;49442;45.640;13.812;2023-04-07T11:43:21;32.10;;;20.33;;
63312;SDS011;49442;45.640;13.812;2023-04-07T11:51:19;32.60;;;18.88;;
63312;SDS011;49442;45.640;13.812;2023-04-07T11:53:53;28.63;;;20.55;;
63312;SDS011;49442;45.640;13.812;2023-04-07T11:58:49;31.92;;;19.00;;
63312;SDS011;49442;45.640;13.812;2023-04-07T12:01:19;30.40;;;18.10;;
63312;SDS011;49442;45.640;13.812;2023-04-07T12:03:56;30.17;;;17.85;;
63312;SDS011;49442;45.640;13.812;2023-04-07T12:08:55;31.35;;;19.00;;
63312;SDS011;49442;45.640;13.812;2023-04-07T12:11:20;25.95;;;17.27;;
63312;SDS011;49442;45.640;13.812;2023-04-07T12:13:46;27.33;;;16.60;;
63312;SDS011;49442;45.640;13.812;2023-04-07T12:16:12;31.02;;;17.98;;
63312;SDS011;49442;45.640;13.812;2023-04-07T12:18:37;27.00;;;15.88;;
63312;SDS011;49442;45.640;13.812;2023-04-07T12:21:03;25.65;;;16.45;;
63312;SDS011;49442;45.640;13.812;2023-04-07T12:23:29;25.38;;;15.45;;
63312;SDS011;49442;45.640;13.812;2023-04-07T12:25:55;24.55;;;16.30;;
63312;SDS011;49442;45.640;13.812;2023-04-07T12:28:21;30.05;;;15.35;;
63312;SDS011;49442;45.640;13.812;2023-04-07T12:30:46;21.92;;;14.80;;
63312;SDS011;49442;45.640;13.812;2023-04-07T12:33:13;29.80;;;15.27;;
63312;SDS011;49442;45.640;13.812;2023-04-07T12:35:39;19.23;;;13.65;;
63312;SDS011;49442;45.640;13.812;2023-04-07T12:38:04;21.40;;;13.98;;
63312;SDS011;49442;45.640;13.812;2023-04-07T12:40:30;21.02;;;15.07;;
63312;SDS011;49442;45.640;13.812;2023-04-07T12:42:56;29.38;;;15.88;;
63312;SDS011;49442;45.640;13.812;2023-04-07T12:45:25;24.15;;;13.93;;
63312;SDS011;49442;45.640;13.812;2023-04-07T12:47:50;19.95;;;13.90;;
63312;SDS011;49442;45.640;13.812;2023-04-07T12:50:16;31.42;;;15.00;;
63312;SDS011;49442;45.640;13.812;2023-04-07T12:52:42;23.42;;;13.27;;
63312;SDS011;49442;45.640;13.812;2023-04-07T12:55:08;23.05;;;13.27;;
63312;SDS011;49442;45.640;13.812;2023-04-07T12:57:33;23.58;;;14.57;;
63312;SDS011;49442;45.640;13.812;2023-04-07T12:59:59;26.90;;;14.70;;
63312;SDS011;49442;45.640;13.812;2023-04-07T13:02:25;19.35;;;13.35;;
63312;SDS011;49442;45.640;13.812;2023-04-07T13:04:51;23.65;;;15.02;;
63312;SDS011;49442;45.640;13.812;2023-04-07T13:07:16;21.20;;;15.02;;
63312;SDS011;49442;45.640;13.812;2023-04-07T13:09:43;26.08;;;15.95;;
63312;SDS011;49442;45.640;13.812;2023-04-07T13:12:09;24.42;;;15.43;;
63312;SDS011;49442;45.640;13.812;2023-04-07T13:14:36;24.83;;;14.88;;
63312;SDS011;49442;45.640;13.812;2023-04-07T13:17:03;25.38;;;16.15;;
63312;SDS011;49442;45.640;13.812;2023-04-07T13:19:29;30.58;;;16.20;;
63312;SDS011;49442;45.640;13.812;2023-04-07T13:21:55;27.00;;;16.55;;
63312;SDS011;49442;45.640;13.812;2023-04-07T13:24:21;25.23;;;16.92;;
63312;SDS011;49442;45.640;13.812;2023-04-07T13:26:46;24.50;;;17.88;;
63312;SDS011;49442;45.640;13.812;2023-04-07T13:29:12;23.38;;;17.35;;
63312;SDS011;49442;45.640;13.812;2023-04-07T13:31:38;29.02;;;17.88;;
63312;SDS011;49442;45.640;13.812;2023-04-07T13:34:04;32.40;;;18.77;;
63312;SDS011;49442;45.640;13.812;2023-04-07T13:36:30;26.80;;;18.42;;
63312;SDS011;49442;45.640;13.812;2023-04-07T13:38:55;27.70;;;18.00;;
63312;SDS011;49442;45.640;13.812;2023-04-07T13:41:21;24.20;;;16.75;;
63312;SDS011;49442;45.640;13.812;2023-04-07T13:43:47;24.70;;;17.10;;
63312;SDS011;49442;45.640;13.812;2023-04-07T13:46:13;27.15;;;17.90;;
63312;SDS011;49442;45.640;13.812;2023-04-07T13:48:44;28.92;;;16.75;;
63312;SDS011;49442;45.640;13.812;2023-04-07T13:51:11;25.77;;;17.33;;
63312;SDS011;49442;45.640;13.812;2023-04-07T13:53:38;25.33;;;16.92;;
63312;SDS011;49442;45.640;13.812;2023-04-07T13:56:03;24.00;;;16.35;;
63312;SDS011;49442;45.640;13.812;2023-04-07T13:58:32;22.48;;;15.43;;
63312;SDS011;49442;45.640;13.812;2023-04-07T14:00:58;21.77;;;15.30;;
63312;SDS011;49442;45.640;13.812;2023-04-07T14:03:24;27.67;;;17.80;;
63312;SDS011;49442;45.640;13.812;2023-04-07T14:05:50;25.77;;;15.45;;
63312;SDS011;49442;45.640;13.812;2023-04-07T14:08:16;26.67;;;16.35;;
63312;SDS011;49442;45.640;13.812;2023-04-07T14:10:43;27.35;;;17.83;;
63312;SDS011;49442;45.640;13.812;2023-04-07T14:13:08;25.95;;;17.33;;
63312;SDS011;49442;45.640;13.812;2023-04-07T14:15:35;27.10;;;16.85;;
63312;SDS011;49442;45.640;13.812;2023-04-07T14:18:00;24.70;;;15.80;;
63312;SDS011;49442;45.640;13.812;2023-04-07T14:20:26;23.20;;;15.63;;
63312;SDS011;49442;45.640;13.812;2023-04-07T14:22:52;22.92;;;16.15;;
63312;SDS011;49442;45.640;13.812;2023-04-07T14:25:18;27.48;;;16.85;;
63312;SDS011;49442;45.640;13.812;2023-04-07T14:27:43;31.00;;;18.02;;
63312;SDS011;49442;45.640;13.812;2023-04-07T14:30:09;24.63;;;17.70;;
63312;SDS011;49442;45.640;13.812;2023-04-07T14:32:35;24.20;;;16.40;;
63312;SDS011;49442;45.640;13.812;2023-04-07T14:35:01;25.48;;;16.50;;
63312;SDS011;49442;45.640;13.812;2023-04-07T14:37:27;30.58;;;19.52;;
63312;SDS011;49442;45.640;13.812;2023-04-07T14:39:53;31.63;;;18.15;;